createdAt,value
2023-04-09T00:02:46.880Z,6.80
2023-04-09T00:07:47.764Z,5.37
2023-04-09T00:12:48.657Z,4.93
2023-04-09T00:17:51.576Z,4.75
2023-04-09T00:22:57.350Z,5.68
2023-04-09T00:27:58.301Z,6.60
2023-04-09T00:32:59.156Z,7.03
2023-04-09T00:37:59.934Z,6.28
2023-04-09T00:43:01.604Z,5.90
2023-04-09T00:48:02.616Z,5.80
2023-04-09T00:53:04.601Z,5.80
2023-04-09T00:58:05.471Z,6.40
2023-04-09T01:03:08.093Z,6.90
2023-04-09T01:08:51.267Z,6.18
2023-04-09T01:14:11.754Z,5.70
2023-04-09T01:19:34.104Z,5.53
2023-04-09T01:24:46.732Z,5.18
2023-04-09T01:29:53.786Z,5.80
2023-04-09T01:34:55.552Z,4.68
2023-04-09T01:39:56.687Z,5.95
2023-04-09T01:44:58.737Z,6.10
2023-04-09T01:50:00.563Z,4.93
2023-04-09T01:55:01.477Z,6.28
2023-04-09T02:00:02.994Z,5.32
2023-04-09T02:05:19.468Z,5.60
2023-04-09T02:10:23.802Z,4.97
2023-04-09T02:15:27.800Z,5.55
2023-04-09T02:20:28.635Z,4.70
2023-04-09T02:25:30.128Z,5.05
2023-04-09T02:30:30.982Z,5.53
2023-04-09T02:35:32.364Z,4.72
2023-04-09T02:40:33.148Z,5.40
2023-04-09T02:45:34.076Z,5.22
2023-04-09T02:50:35.115Z,5.72
2023-04-09T02:55:36.339Z,5.70
2023-04-09T03:00:37.421Z,4.90
2023-04-09T03:05:38.851Z,6.22
2023-04-09T03:10:39.873Z,6.53
2023-04-09T03:15:41.129Z,6.03
2023-04-09T03:20:41.992Z,5.90
2023-04-09T03:25:43.977Z,5.65
2023-04-09T03:30:54.527Z,6.90
2023-04-09T03:35:55.968Z,6.35
2023-04-09T03:41:45.036Z,6.15
2023-04-09T03:46:49.095Z,6.57
2023-04-09T03:51:51.658Z,7.20
2023-04-09T03:56:53.030Z,7.25
2023-04-09T04:01:56.626Z,6.68
2023-04-09T04:06:58.054Z,8.05
2023-04-09T04:12:05.019Z,8.13
2023-04-09T04:17:34.769Z,8.23
2023-04-09T04:22:36.475Z,8.35
2023-04-09T04:27:41.585Z,8.02
2023-04-09T04:32:43.446Z,8.60
2023-04-09T04:37:49.121Z,10.02
2023-04-09T04:42:50.223Z,8.80
2023-04-09T04:47:51.263Z,10.55
2023-04-09T04:52:52.168Z,9.57
2023-04-09T04:57:53.796Z,9.73
2023-04-09T05:02:57.586Z,10.32
2023-04-09T05:09:21.221Z,10.38
2023-04-09T05:14:32.244Z,9.45
2023-04-09T05:19:33.202Z,10.43
2023-04-09T05:24:36.116Z,9.30
2023-04-09T05:29:37.016Z,10.10
2023-04-09T05:34:42.238Z,10.55
2023-04-09T05:39:43.235Z,10.15
2023-04-09T05:44:44.198Z,11.05
2023-04-09T05:49:49.271Z,9.88
2023-04-09T05:54:51.233Z,10.32
2023-04-09T05:59:55.647Z,10.80
2023-04-09T06:04:56.657Z,11.45
2023-04-09T06:09:59.283Z,12.93
2023-04-09T06:15:00.055Z,12.00
2023-04-09T06:20:01.571Z,11.20
2023-04-09T06:25:02.876Z,14.10
2023-04-09T06:30:04.548Z,14.73
2023-04-09T06:35:09.689Z,15.38
2023-04-09T06:40:12.286Z,16.67
2023-04-09T06:45:13.054Z,16.87
2023-04-09T06:50:13.921Z,16.70
2023-04-09T06:55:14.700Z,17.77
2023-04-09T07:00:15.807Z,17.70
2023-04-09T07:05:16.679Z,18.60
2023-04-09T07:10:17.948Z,19.92
2023-04-09T07:15:18.723Z,19.23
2023-04-09T07:20:19.607Z,19.75
2023-04-09T07:25:23.161Z,19.20
2023-04-09T07:30:24.193Z,18.27
2023-04-09T07:35:25.149Z,19.20
2023-04-09T07:40:26.523Z,19.40
2023-04-09T07:45:27.387Z,18.08
2023-04-09T07:50:29.046Z,17.85
2023-04-09T07:55:29.901Z,19.08
2023-04-09T08:00:30.759Z,17.48
2023-04-09T08:05:31.566Z,18.25
2023-04-09T08:10:32.395Z,18.90
2023-04-09T08:15:33.172Z,17.48
2023-04-09T08:20:34.138Z,17.05
2023-04-09T08:25:35.080Z,17.40
2023-04-09T08:30:36.474Z,19.37
2023-04-09T08:35:37.519Z,18.15
2023-04-09T08:40:38.320Z,17.02
2023-04-09T08:45:41.864Z,17.48
2023-04-09T08:50:45.392Z,17.42
2023-04-09T08:55:46.174Z,17.35
2023-04-09T09:00:46.989Z,17.60
2023-04-09T09:05:50.431Z,15.98
2023-04-09T09:10:52.094Z,16.75
2023-04-09T09:16:14.411Z,15.57
2023-04-09T09:21:17.253Z,14.67
2023-04-09T09:26:25.083Z,15.20
2023-04-09T09:31:26.524Z,14.52
2023-04-09T09:36:34.714Z,18.33
2023-04-09T09:41:36.287Z,14.43
2023-04-09T09:46:39.023Z,15.23
2023-04-09T09:51:40.774Z,14.93
2023-04-09T09:56:43.192Z,13.15
2023-04-09T10:01:46.713Z,13.17
2023-04-09T10:06:50.599Z,13.18
2023-04-09T10:11:55.246Z,10.82
2023-04-09T10:16:56.682Z,11.15
2023-04-09T10:22:04.953Z,11.90
2023-04-09T10:27:10.712Z,11.32
2023-04-09T10:32:12.282Z,13.90
2023-04-09T10:37:20.412Z,10.13
2023-04-09T10:42:34.790Z,8.52
2023-04-09T10:47:41.726Z,8.85
2023-04-09T10:52:43.517Z,11.20
2023-04-09T10:57:44.389Z,10.93
2023-04-09T11:03:06.154Z,11.00
2023-04-09T11:08:16.205Z,9.30
2023-04-09T11:13:19.233Z,10.15
2023-04-09T11:18:22.363Z,8.55
2023-04-09T11:23:24.226Z,9.52
2023-04-09T11:28:28.263Z,12.25
2023-04-09T11:33:33.532Z,11.65
2023-04-09T11:38:43.038Z,11.60
2023-04-09T11:43:44.275Z,10.20
2023-04-09T11:48:45.422Z,9.23
2023-04-09T11:53:48.689Z,9.43
2023-04-09T12:03:54.728Z,8.38
2023-04-09T12:08:57.420Z,8.63
2023-04-09T12:14:05.475Z,9.07
2023-04-09T12:19:07.803Z,9.10
2023-04-09T12:24:08.760Z,8.73
2023-04-09T12:29:09.968Z,8.48
2023-04-09T12:34:11.226Z,8.73
2023-04-09T12:39:12.064Z,8.88
2023-04-09T12:44:12.880Z,7.25
2023-04-09T12:49:13.739Z,7.87
2023-04-09T12:54:17.187Z,7.85
2023-04-09T12:59:23.140Z,7.40
2023-04-09T13:04:24.832Z,7.43
2023-04-09T13:09:25.768Z,7.55
2023-04-09T13:14:26.988Z,7.53
2023-04-09T13:19:27.782Z,7.53
2023-04-09T13:24:30.484Z,7.78
2023-04-09T13:34:34.404Z,8.38
2023-04-09T13:39:35.395Z,7.20
2023-04-09T13:44:36.239Z,7.45
2023-04-09T13:49:37.016Z,7.35
2023-04-09T13:54:37.914Z,7.28
2023-04-09T13:59:40.980Z,7.68
2023-04-09T14:04:42.000Z,8.52
2023-04-09T14:09:43.282Z,7.70
2023-04-09T14:14:44.181Z,8.77
2023-04-09T14:19:45.073Z,8.65
2023-04-09T14:24:45.993Z,9.07
2023-04-09T14:29:46.951Z,8.70
2023-04-09T14:34:47.742Z,8.15
2023-04-09T14:39:48.519Z,7.95
2023-04-09T14:44:49.322Z,8.43
2023-04-09T14:49:50.119Z,7.75
2023-04-09T14:54:51.075Z,8.57
2023-04-09T14:59:51.867Z,9.10
2023-04-09T15:04:52.778Z,8.85
2023-04-09T15:09:53.887Z,7.65
2023-04-09T15:14:56.675Z,7.60
2023-04-09T15:19:58.047Z,9.13
2023-04-09T15:24:59.203Z,8.48
2023-04-09T15:29:59.994Z,8.02
2023-04-09T15:35:01.047Z,9.00
2023-04-09T15:40:03.355Z,7.53
2023-04-09T15:45:05.484Z,7.37
2023-04-09T15:50:07.523Z,6.93
2023-04-09T15:55:10.229Z,6.95
2023-04-09T16:00:11.794Z,7.03
2023-04-09T16:05:12.764Z,7.07
2023-04-09T16:10:13.926Z,6.70
2023-04-09T16:15:15.199Z,7.62
2023-04-09T16:20:16.030Z,8.10
2023-04-09T16:25:17.001Z,7.25
2023-04-09T16:30:17.921Z,7.80
2023-04-09T16:35:18.956Z,7.55
2023-04-09T16:40:23.578Z,7.87
2023-04-09T16:45:26.962Z,7.07
2023-04-09T16:50:27.837Z,7.55
2023-04-09T16:55:29.104Z,7.37
2023-04-09T17:00:29.971Z,7.37
2023-04-09T17:05:30.831Z,7.75
2023-04-09T17:10:32.467Z,6.43
2023-04-09T17:15:33.449Z,7.60
2023-04-09T17:20:34.300Z,7.72
2023-04-09T17:25:35.579Z,6.72
2023-04-09T17:30:36.542Z,7.25
2023-04-09T17:35:37.855Z,6.70
2023-04-09T17:40:39.017Z,6.43
2023-04-09T17:45:40.469Z,7.03
2023-04-09T17:50:41.396Z,6.40
2023-04-09T17:55:50.116Z,6.97
2023-04-09T18:00:52.361Z,7.32
2023-04-09T18:05:53.494Z,8.10
2023-04-09T18:11:05.165Z,7.93
2023-04-09T18:16:12.729Z,7.65
2023-04-09T18:21:14.566Z,6.20
2023-04-09T18:26:15.733Z,5.60
2023-04-09T18:31:16.812Z,7.72
2023-04-09T18:36:18.549Z,8.50
2023-04-09T18:41:27.362Z,6.40
2023-04-09T18:46:28.970Z,6.20
2023-04-09T18:51:31.129Z,13.52
2023-04-09T18:56:35.693Z,14.10
2023-04-09T19:01:36.632Z,7.18
2023-04-09T19:06:37.576Z,6.37
2023-04-09T19:11:38.356Z,6.87
2023-04-09T19:16:39.199Z,6.50
2023-04-09T19:21:40.745Z,6.55
2023-04-09T19:26:41.622Z,5.95
2023-04-09T19:31:45.230Z,6.28
2023-04-09T19:36:46.098Z,6.10
2023-04-09T19:41:46.943Z,5.22
2023-04-09T19:46:47.761Z,7.87
2023-04-09T19:51:51.097Z,6.65
2023-04-09T19:56:51.997Z,5.25
2023-04-09T20:01:52.982Z,7.18
2023-04-09T20:06:54.608Z,6.70
2023-04-09T20:11:57.599Z,5.70
2023-04-09T20:16:58.477Z,6.47
2023-04-09T20:21:59.676Z,6.15
2023-04-09T20:27:01.317Z,6.30
2023-04-09T20:32:02.691Z,5.90
2023-04-09T20:37:04.897Z,5.87
2023-04-09T20:42:05.706Z,7.70
2023-04-09T20:47:06.577Z,6.78
2023-04-09T20:52:09.332Z,5.87
2023-04-09T20:57:12.071Z,6.47
2023-04-09T21:02:15.995Z,7.15
2023-04-09T21:07:16.862Z,5.67
2023-04-09T21:12:17.733Z,5.37
2023-04-09T21:17:18.709Z,5.32
2023-04-09T21:22:20.009Z,5.90
2023-04-09T21:27:27.652Z,5.68
2023-04-09T21:32:28.471Z,7.75
2023-04-09T21:37:31.159Z,11.70
2023-04-09T21:42:31.942Z,8.68
2023-04-09T21:47:32.912Z,8.75
2023-04-09T21:52:34.387Z,7.68
2023-04-09T21:57:35.409Z,7.22
2023-04-09T22:02:37.654Z,6.70
2023-04-09T22:07:39.254Z,7.10
2023-04-09T22:12:40.572Z,7.12
2023-04-09T22:17:42.006Z,6.50
2023-04-09T22:22:43.398Z,6.15
2023-04-09T22:27:48.734Z,6.12
2023-04-09T22:32:51.918Z,6.10
2023-04-09T22:42:53.574Z,7.37
2023-04-09T22:47:54.962Z,7.32
2023-04-09T22:52:55.774Z,6.60
2023-04-09T22:57:57.377Z,7.97
2023-04-09T23:02:58.422Z,6.75
2023-04-09T23:07:59.481Z,6.57
2023-04-09T23:13:01.054Z,7.90
2023-04-09T23:18:03.135Z,7.65
2023-04-09T23:23:04.004Z,7.25
2023-04-09T23:28:05.092Z,7.82
2023-04-09T23:33:05.890Z,7.97
2023-04-09T23:38:09.614Z,7.55
2023-04-09T23:43:10.675Z,8.63
2023-04-09T23:48:11.796Z,8.10
2023-04-09T23:53:12.691Z,7.87
2023-04-09T23:58:13.593Z,8.40
